Time;durP1;ratioP1;P1;durP2;ratioP2;P2;SDS_P1;SDS_P2;PMS_P1;PMS_P2;Temp;Humidity;BMP_temperature;BMP_pressure;BME280_temperature;BME280_humidity;BME280_pressure;Samples;Min_cycle;Max_cycle;Signal;HPM_P1;HPM_P2
2023/12/09 00:00:53;;;;;;;10.77;7.68;;;;;;;;;;5095237;28;20118;-62
2023/12/09 00:03:19;;;;;;;12.77;8.25;;;;;;;;;;5094965;28;20057;-62
2023/12/09 00:05:44;;;;;;;11.93;7.53;;;;;;;;;;5095094;28;20020;-62
2023/12/09 00:08:10;;;;;;;15.88;7.80;;;;;;;;;;5094647;28;20028;-62
2023/12/09 00:10:35;;;;;;;14.98;7.78;;;;;;;;;;5094437;28;20032;-62
2023/12/09 00:13:01;;;;;;;11.88;8.05;;;;;;;;;;5095177;28;20035;-62
2023/12/09 00:15:27;;;;;;;10.98;7.63;;;;;;;;;;5094677;28;20449;-62
2023/12/09 00:17:52;;;;;;;11.93;7.50;;;;;;;;;;5094952;28;20024;-67
2023/12/09 00:20:18;;;;;;;16.55;7.70;;;;;;;;;;5094743;28;20036;-66
2023/12/09 00:22:43;;;;;;;18.63;8.05;;;;;;;;;;5094713;28;20055;-66
2023/12/09 00:25:09;;;;;;;16.60;7.60;;;;;;;;;;5093478;28;20047;-65
2023/12/09 00:27:35;;;;;;;11.75;7.70;;;;;;;;;;5094306;28;20477;-66
2023/12/09 00:30:00;;;;;;;12.10;7.47;;;;;;;;;;5094476;28;20025;-67
2023/12/09 00:32:26;;;;;;;11.15;7.00;;;;;;;;;;5094531;28;20107;-67
2023/12/09 00:34:51;;;;;;;12.02;7.20;;;;;;;;;;5091665;28;20496;-66
2023/12/09 00:37:17;;;;;;;18.08;7.55;;;;;;;;;;5090532;28;20048;-65
2023/12/09 00:39:42;;;;;;;14.98;7.20;;;;;;;;;;5093059;28;20028;-66
2023/12/09 00:42:10;;;;;;;14.18;8.10;;;;;;;;;;5093205;28;20024;-68
2023/12/09 00:44:36;;;;;;;17.02;7.53;;;;;;;;;;5092215;28;20525;-70
2023/12/09 00:47:02;;;;;;;12.90;7.22;;;;;;;;;;5092257;28;20024;-68
2023/12/09 00:49:27;;;;;;;11.60;7.43;;;;;;;;;;5094137;28;20085;-69
2023/12/09 00:51:53;;;;;;;11.98;7.00;;;;;;;;;;5093603;28;20016;-69
2023/12/09 00:54:18;;;;;;;19.23;7.75;;;;;;;;;;5093679;28;20358;-69
2023/12/09 00:56:44;;;;;;;13.90;8.13;;;;;;;;;;5093647;28;20571;-69
2023/12/09 00:59:09;;;;;;;12.10;7.97;;;;;;;;;;5090606;28;20166;-68
2023/12/09 01:01:35;;;;;;;15.32;7.55;;;;;;;;;;5088189;28;20036;-68
2023/12/09 01:04:01;;;;;;;13.77;7.35;;;;;;;;;;5087166;28;20415;-67
2023/12/09 01:06:28;;;;;;;17.65;7.47;;;;;;;;;;5090811;28;20020;-66
2023/12/09 01:08:53;;;;;;;13.25;7.20;;;;;;;;;;5093932;28;20024;-65
2023/12/09 01:11:19;;;;;;;18.13;7.30;;;;;;;;;;5093925;28;20024;-66
2023/12/09 01:13:44;;;;;;;9.30;6.60;;;;;;;;;;5093640;28;20031;-69
2023/12/09 01:16:10;;;;;;;10.25;6.82;;;;;;;;;;5091020;28;20099;-66
2023/12/09 01:18:35;;;;;;;10.20;7.25;;;;;;;;;;5093259;28;20388;-69
2023/12/09 01:21:01;;;;;;;10.80;6.63;;;;;;;;;;5092824;28;20028;-66
2023/12/09 01:23:26;;;;;;;13.45;7.47;;;;;;;;;;5094028;28;20073;-68
2023/12/09 01:25:52;;;;;;;14.07;7.60;;;;;;;;;;5093080;28;20504;-68
2023/12/09 01:28:17;;;;;;;10.93;7.25;;;;;;;;;;5092381;28;20054;-69
2023/12/09 01:30:43;;;;;;;11.50;6.63;;;;;;;;;;5091669;28;20056;-67
2023/12/09 01:33:09;;;;;;;9.50;7.05;;;;;;;;;;5091684;28;20059;-66
2023/12/09 01:35:34;;;;;;;10.95;6.97;;;;;;;;;;5092026;28;20059;-66
2023/12/09 01:38:00;;;;;;;12.13;6.80;;;;;;;;;;5091641;28;20036;-68
2023/12/09 01:40:25;;;;;;;11.77;7.15;;;;;;;;;;5089357;28;20020;-70
2023/12/09 01:42:51;;;;;;;12.57;6.90;;;;;;;;;;5089482;28;20031;-66
2023/12/09 01:45:16;;;;;;;10.38;6.88;;;;;;;;;;5089645;28;20020;-65
2023/12/09 01:47:42;;;;;;;9.70;6.57;;;;;;;;;;5089729;28;20493;-68
2023/12/09 01:50:09;;;;;;;11.90;7.65;;;;;;;;;;5089887;28;20523;-66
2023/12/09 01:52:35;;;;;;;9.70;6.40;;;;;;;;;;5089452;28;20627;-65
2023/12/09 01:55:02;;;;;;;13.48;6.78;;;;;;;;;;5090466;28;20020;-68
2023/12/09 01:57:28;;;;;;;10.60;7.10;;;;;;;;;;5090576;28;20020;-66
2023/12/09 01:59:53;;;;;;;11.23;6.47;;;;;;;;;;5090431;28;20376;-66
2023/12/09 02:02:19;;;;;;;11.35;6.85;;;;;;;;;;5090120;28;20032;-65
2023/12/09 02:04:45;;;;;;;9.95;6.78;;;;;;;;;;5090377;28;20019;-66
2023/12/09 09:11:02;;;;;;;5.55;4.40;;;;;;;;;;5876310;23;20221;-68
2023/12/09 09:13:28;;;;;;;4.72;3.95;;;;;;;;;;4972810;28;20118;-68
2023/12/09 09:15:54;;;;;;;4.97;4.47;;;;;;;;;;4972883;28;20046;-68
2023/12/09 09:18:21;;;;;;;6.47;4.38;;;;;;;;;;4970146;28;20515;-68
2023/12/09 09:20:46;;;;;;;6.30;4.70;;;;;;;;;;4970157;28;20479;-69
2023/12/09 09:23:12;;;;;;;5.75;4.55;;;;;;;;;;4973191;28;20143;-69
2023/12/09 09:25:38;;;;;;;5.13;4.00;;;;;;;;;;4971476;28;20027;-70
2023/12/09 09:28:03;;;;;;;5.50;4.38;;;;;;;;;;4970146;28;20049;-69
2023/12/09 09:30:29;;;;;;;4.95;4.10;;;;;;;;;;4973075;28;20077;-69
2023/12/09 09:32:55;;;;;;;5.47;4.40;;;;;;;;;;4970052;28;20027;-69
2023/12/09 09:35:20;;;;;;;6.70;4.10;;;;;;;;;;4972082;28;20062;-69
2023/12/09 09:37:46;;;;;;;5.68;4.30;;;;;;;;;;4972171;28;20069;-70
2023/12/09 09:40:14;;;;;;;5.68;4.40;;;;;;;;;;4973640;28;20118;-69
2023/12/09 09:43:03;;;;;;;5.28;4.35;;;;;;;;;;4970881;28;20026;-69
2023/12/09 09:45:28;;;;;;;5.47;4.60;;;;;;;;;;4960350;28;20075;-68
2023/12/09 09:47:57;;;;;;;5.88;3.85;;;;;;;;;;4962580;28;20027;-69
2023/12/09 09:50:25;;;;;;;7.63;4.53;;;;;;;;;;4974722;28;20379;-69
2023/12/09 09:52:52;;;;;;;11.75;4.75;;;;;;;;;;4974307;28;20026;-67
2023/12/09 09:55:19;;;;;;;5.55;4.25;;;;;;;;;;4974618;28;20022;-67
2023/12/09 09:57:46;;;;;;;5.15;4.43;;;;;;;;;;4974548;28;20273;-66
2023/12/09 10:00:14;;;;;;;6.15;4.45;;;;;;;;;;4971667;28;20093;-69
2023/12/09 10:02:47;;;;;;;5.82;4.07;;;;;;;;;;4968377;28;20588;-69
2023/12/09 10:05:15;;;;;;;7.90;4.40;;;;;;;;;;4972538;28;20445;-67
2023/12/09 10:07:42;;;;;;;6.93;4.28;;;;;;;;;;4971026;28;20030;-68
2023/12/09 10:10:08;;;;;;;10.38;4.47;;;;;;;;;;4970637;28;20023;-68
2023/12/09 10:12:37;;;;;;;8.43;4.78;;;;;;;;;;4969558;28;20491;-68
2023/12/09 10:15:04;;;;;;;5.97;4.40;;;;;;;;;;4972480;28;20089;-68
2023/12/09 10:17:31;;;;;;;7.00;4.70;;;;;;;;;;4973876;28;20610;-68
2023/12/09 10:19:57;;;;;;;8.25;4.22;;;;;;;;;;4973125;28;20519;-68
2023/12/09 10:22:24;;;;;;;5.97;4.25;;;;;;;;;;4973726;28;20039;-68
2023/12/09 10:24:51;;;;;;;14.20;5.03;;;;;;;;;;4972656;28;20023;-67
2023/12/09 10:27:19;;;;;;;7.28;4.70;;;;;;;;;;4972260;28;20027;-68
2023/12/09 10:29:45;;;;;;;9.55;4.60;;;;;;;;;;4972435;28;20019;-68
2023/12/09 10:32:12;;;;;;;6.90;4.35;;;;;;;;;;4972738;28;20106;-68
2023/12/09 10:34:39;;;;;;;6.20;4.28;;;;;;;;;;4972851;28;20038;-68
2023/12/09 10:37:07;;;;;;;5.95;4.30;;;;;;;;;;4972843;28;20390;-68
2023/12/09 10:39:34;;;;;;;5.40;4.25;;;;;;;;;;4973232;28;20034;-68
2023/12/09 10:41:59;;;;;;;5.60;4.07;;;;;;;;;;4973929;28;20038;-69
2023/12/09 10:44:25;;;;;;;6.90;4.47;;;;;;;;;;4973691;28;20471;-67
2023/12/09 10:46:50;;;;;;;5.63;4.68;;;;;;;;;;4973865;28;20031;-68
2023/12/09 10:49:16;;;;;;;4.50;3.97;;;;;;;;;;4973908;28;20091;-67
2023/12/09 10:51:42;;;;;;;8.13;4.40;;;;;;;;;;4973546;28;20030;-68
2023/12/09 10:54:07;;;;;;;8.45;4.40;;;;;;;;;;4975587;28;20073;-67
2023/12/09 10:56:33;;;;;;;7.50;4.28;;;;;;;;;;4977804;28;20118;-68
2023/12/09 10:59:01;;;;;;;8.93;5.05;;;;;;;;;;4977617;28;20395;-67
2023/12/09 11:01:28;;;;;;;6.65;4.18;;;;;;;;;;4976711;28;20037;-68
2023/12/09 11:03:54;;;;;;;5.30;4.00;;;;;;;;;;4977735;28;20037;-67
2023/12/09 11:06:21;;;;;;;7.50;4.55;;;;;;;;;;4977438;28;20031;-68
2023/12/09 11:08:47;;;;;;;6.55;4.45;;;;;;;;;;4977226;28;20035;-68
2023/12/09 11:11:13;;;;;;;6.72;4.43;;;;;;;;;;4977401;28;20047;-68
2023/12/09 11:13:44;;;;;;;5.38;3.75;;;;;;;;;;4976078;28;20027;-68
2023/12/09 11:16:16;;;;;;;6.38;4.00;;;;;;;;;;4977250;28;20027;-67
2023/12/09 11:18:52;;;;;;;7.35;4.18;;;;;;;;;;4977636;28;20418;-68
2023/12/09 11:21:22;;;;;;;4.80;4.25;;;;;;;;;;4977113;28;20026;-68
2023/12/09 11:23:50;;;;;;;5.25;4.10;;;;;;;;;;4977366;28;20081;-68
2023/12/09 11:26:33;;;;;;;6.13;4.20;;;;;;;;;;4977374;28;20105;-68
2023/12/09 11:29:04;;;;;;;5.38;4.00;;;;;;;;;;4976940;28;20026;-67
2023/12/09 11:31:36;;;;;;;7.00;4.13;;;;;;;;;;4977306;28;20030;-68
2023/12/09 11:34:04;;;;;;;5.63;3.88;;;;;;;;;;4976863;28;20031;-68
2023/12/09 11:36:31;;;;;;;7.53;4.72;;;;;;;;;;4976871;28;20086;-68
2023/12/09 11:38:57;;;;;;;4.35;3.80;;;;;;;;;;4977089;28;20046;-68
2023/12/09 11:41:25;;;;;;;6.57;4.10;;;;;;;;;;4976806;28;20027;-68
2023/12/09 11:43:51;;;;;;;6.25;4.07;;;;;;;;;;4976717;28;20058;-68
2023/12/09 11:46:17;;;;;;;8.02;4.40;;;;;;;;;;4976944;28;20101;-68
2023/12/09 11:48:43;;;;;;;6.80;3.88;;;;;;;;;;4976866;28;20026;-67
2023/12/09 11:51:09;;;;;;;5.15;4.32;;;;;;;;;;4976694;28;20053;-67
2023/12/09 11:53:34;;;;;;;5.78;4.38;;;;;;;;;;4976818;28;20050;-68
2023/12/09 11:56:00;;;;;;;6.03;4.10;;;;;;;;;;4976621;28;20391;-67
2023/12/09 11:58:25;;;;;;;4.88;3.95;;;;;;;;;;4976695;28;20049;-68
2023/12/09 12:00:51;;;;;;;5.03;3.95;;;;;;;;;;4976474;28;20038;-68
2023/12/09 12:03:17;;;;;;;5.13;3.92;;;;;;;;;;4976562;28;20032;-67
2023/12/09 12:05:42;;;;;;;6.07;4.05;;;;;;;;;;4975607;28;20472;-68
2023/12/09 12:08:08;;;;;;;4.88;3.90;;;;;;;;;;4976613;28;20058;-68
2023/12/09 12:10:34;;;;;;;5.20;4.20;;;;;;;;;;4976589;28;20015;-67
2023/12/09 12:13:02;;;;;;;4.70;3.80;;;;;;;;;;4976011;28;20106;-68
2023/12/09 12:15:28;;;;;;;6.20;4.00;;;;;;;;;;4976159;28;20034;-68
2023/12/09 12:17:54;;;;;;;5.32;3.90;;;;;;;;;;4976111;28;20027;-68
2023/12/09 12:20:19;;;;;;;5.20;4.43;;;;;;;;;;4976105;28;20046;-69
2023/12/09 12:22:45;;;;;;;5.15;4.30;;;;;;;;;;4975858;28;20058;-67
2023/12/09 12:25:10;;;;;;;5.03;3.88;;;;;;;;;;4976133;28;20081;-67
2023/12/09 12:27:41;;;;;;;5.13;4.13;;;;;;;;;;4976221;28;20038;-68
2023/12/09 12:30:08;;;;;;;7.43;3.80;;;;;;;;;;4976017;28;20030;-67
2023/12/09 12:32:37;;;;;;;7.68;3.90;;;;;;;;;;4976063;28;20026;-67
2023/12/09 12:35:05;;;;;;;7.05;4.07;;;;;;;;;;4976088;28;20053;-69
2023/12/09 12:37:31;;;;;;;11.70;4.88;;;;;;;;;;4975818;28;20046;-66
2023/12/09 12:39:57;;;;;;;7.47;4.13;;;;;;;;;;4975997;28;20027;-67
2023/12/09 12:42:23;;;;;;;5.40;3.97;;;;;;;;;;4975994;28;20042;-67
2023/12/09 12:44:48;;;;;;;5.72;4.20;;;;;;;;;;4975905;28;20026;-67
2023/12/09 12:47:14;;;;;;;8.30;4.18;;;;;;;;;;4975630;28;20375;-67
2023/12/09 12:49:39;;;;;;;6.10;4.20;;;;;;;;;;4975599;28;20030;-67
2023/12/09 12:52:06;;;;;;;5.90;3.95;;;;;;;;;;4975629;28;20031;-66
2023/12/09 12:54:31;;;;;;;7.75;4.20;;;;;;;;;;4975511;28;20261;-68
2023/12/09 12:56:57;;;;;;;6.25;4.20;;;;;;;;;;4975433;28;20036;-66
2023/12/09 12:59:22;;;;;;;9.55;4.90;;;;;;;;;;4975496;28;20035;-67
2023/12/09 13:01:48;;;;;;;7.63;4.68;;;;;;;;;;4975541;28;20027;-68
2023/12/09 13:04:13;;;;;;;8.95;4.30;;;;;;;;;;4975231;28;20085;-67
2023/12/09 13:06:39;;;;;;;9.35;4.85;;;;;;;;;;4975443;28;20019;-67
2023/12/09 13:09:04;;;;;;;6.88;4.78;;;;;;;;;;4974922;28;20105;-69
2023/12/09 13:11:30;;;;;;;8.75;4.78;;;;;;;;;;4974958;28;20498;-68
2023/12/09 13:13:55;;;;;;;8.43;4.63;;;;;;;;;;4975013;28;20030;-67
2023/12/09 13:16:21;;;;;;;6.97;4.50;;;;;;;;;;4974719;28;20038;-68
2023/12/09 13:18:47;;;;;;;9.85;4.45;;;;;;;;;;4974502;28;20082;-68
2023/12/09 13:21:12;;;;;;;7.85;5.05;;;;;;;;;;4974877;28;20114;-68
2023/12/09 13:23:38;;;;;;;5.78;4.50;;;;;;;;;;4975141;28;20047;-67
2023/12/09 13:26:04;;;;;;;6.80;5.18;;;;;;;;;;4975094;28;20038;-69
2023/12/09 13:28:29;;;;;;;8.20;5.20;;;;;;;;;;4974701;28;20423;-67
2023/12/09 13:30:55;;;;;;;8.93;5.40;;;;;;;;;;4974666;28;20027;-67
2023/12/09 13:33:21;;;;;;;8.05;4.90;;;;;;;;;;4974787;28;20022;-67
2023/12/09 13:35:48;;;;;;;9.45;5.05;;;;;;;;;;4974934;28;20034;-68
2023/12/09 13:38:15;;;;;;;9.07;5.30;;;;;;;;;;4974745;28;20030;-67
2023/12/09 13:40:44;;;;;;;13.50;6.07;;;;;;;;;;4973671;28;20027;-67
2023/12/09 13:43:10;;;;;;;9.48;5.78;;;;;;;;;;4974139;28;20022;-66
2023/12/09 13:45:36;;;;;;;5.47;4.57;;;;;;;;;;4974049;28;20035;-68
2023/12/09 13:48:03;;;;;;;8.23;5.50;;;;;;;;;;4973483;28;20031;-67
2023/12/09 13:50:29;;;;;;;11.50;5.10;;;;;;;;;;4973239;28;20471;-67
2023/12/09 13:52:54;;;;;;;9.70;5.30;;;;;;;;;;4973144;28;20034;-67
2023/12/09 13:55:21;;;;;;;7.07;5.13;;;;;;;;;;4974302;28;20023;-68
2023/12/09 13:57:46;;;;;;;6.25;5.07;;;;;;;;;;4974695;28;20023;-66
2023/12/09 14:00:13;;;;;;;7.25;5.10;;;;;;;;;;4974248;28;20105;-67
2023/12/09 14:02:39;;;;;;;8.10;5.20;;;;;;;;;;4974312;28;20066;-66
2023/12/09 14:05:08;;;;;;;6.22;4.88;;;;;;;;;;4974454;28;20030;-68
2023/12/09 14:07:33;;;;;;;10.40;5.00;;;;;;;;;;4973254;28;20574;-66
2023/12/09 14:09:59;;;;;;;7.32;4.85;;;;;;;;;;4974146;28;20110;-67
2023/12/09 14:12:25;;;;;;;6.43;4.70;;;;;;;;;;4973884;28;20048;-69
2023/12/09 14:14:50;;;;;;;7.03;5.05;;;;;;;;;;4974056;28;20039;-67
2023/12/09 14:17:16;;;;;;;8.30;5.18;;;;;;;;;;4973987;28;20038;-67
2023/12/09 14:19:42;;;;;;;6.20;4.93;;;;;;;;;;4974262;28;20019;-66
2023/12/09 14:22:09;;;;;;;5.45;4.55;;;;;;;;;;4974189;28;20085;-68
2023/12/09 14:24:35;;;;;;;5.53;4.78;;;;;;;;;;4973744;28;20030;-67
2023/12/09 14:27:01;;;;;;;10.88;4.95;;;;;;;;;;4974028;28;20023;-68
2023/12/09 14:29:27;;;;;;;6.35;5.10;;;;;;;;;;4973437;28;20038;-68
2023/12/09 14:31:52;;;;;;;6.07;4.82;;;;;;;;;;4973784;28;20035;-66
2023/12/09 14:34:18;;;;;;;6.63;4.95;;;;;;;;;;4973849;28;20034;-67
2023/12/09 14:36:43;;;;;;;7.32;4.68;;;;;;;;;;4974017;28;20023;-67
2023/12/09 14:39:12;;;;;;;10.35;5.43;;;;;;;;;;4973944;28;20055;-67
2023/12/09 14:41:39;;;;;;;9.27;4.60;;;;;;;;;;4974188;28;20082;-67
2023/12/09 14:44:05;;;;;;;7.32;5.25;;;;;;;;;;4973701;28;20038;-68
2023/12/09 14:46:31;;;;;;;7.78;5.13;;;;;;;;;;4973856;28;20057;-68
2023/12/09 14:48:56;;;;;;;5.95;4.55;;;;;;;;;;4973602;28;20030;-66
2023/12/09 14:51:22;;;;;;;7.80;4.72;;;;;;;;;;4973868;28;20022;-68
2023/12/09 14:53:47;;;;;;;9.10;5.10;;;;;;;;;;4973598;28;20383;-68
2023/12/09 14:56:13;;;;;;;6.70;4.78;;;;;;;;;;4973858;28;20106;-66
2023/12/09 14:58:39;;;;;;;7.60;4.95;;;;;;;;;;4973844;28;20490;-67
2023/12/09 15:01:05;;;;;;;6.07;4.65;;;;;;;;;;4973847;28;20092;-68
2023/12/09 15:03:30;;;;;;;5.75;4.93;;;;;;;;;;4974021;28;20535;-69
2023/12/09 15:05:56;;;;;;;6.80;4.50;;;;;;;;;;4973495;28;20395;-67
2023/12/09 15:08:23;;;;;;;6.72;5.25;;;;;;;;;;4973914;28;20041;-67
2023/12/09 15:10:52;;;;;;;9.60;5.03;;;;;;;;;;4973558;28;20177;-69
2023/12/09 15:13:18;;;;;;;7.18;4.40;;;;;;;;;;4973855;28;20372;-66
2023/12/09 15:15:43;;;;;;;7.78;5.15;;;;;;;;;;4974295;28;20104;-66
2023/12/09 15:18:09;;;;;;;9.43;5.88;;;;;;;;;;4973842;28;20078;-66
2023/12/09 15:20:34;;;;;;;7.20;5.13;;;;;;;;;;4973397;28;20058;-67
2023/12/09 15:23:00;;;;;;;10.10;5.50;;;;;;;;;;4973423;28;20031;-66
2023/12/09 15:25:25;;;;;;;6.25;4.90;;;;;;;;;;4973297;28;20026;-66
2023/12/09 15:27:51;;;;;;;8.00;4.80;;;;;;;;;;4973621;28;20031;-68
2023/12/09 15:30:18;;;;;;;7.60;5.05;;;;;;;;;;4973347;28;20383;-66
2023/12/09 15:32:44;;;;;;;6.68;4.93;;;;;;;;;;4973307;28;20027;-67
2023/12/09 15:35:10;;;;;;;5.90;4.68;;;;;;;;;;4973326;28;20027;-67
2023/12/09 15:37:36;;;;;;;7.82;4.75;;;;;;;;;;4973351;28;20483;-66
2023/12/09 15:40:02;;;;;;;6.22;4.75;;;;;;;;;;4973560;28;20111;-67
2023/12/09 15:42:28;;;;;;;7.80;4.90;;;;;;;;;;4976761;28;20128;-66
2023/12/09 15:44:54;;;;;;;6.90;4.75;;;;;;;;;;4976745;28;20027;-66
2023/12/09 15:47:19;;;;;;;6.72;4.75;;;;;;;;;;4976603;28;20043;-68
2023/12/09 15:49:45;;;;;;;6.10;4.55;;;;;;;;;;4976787;28;20073;-68
2023/12/09 15:52:11;;;;;;;6.30;4.85;;;;;;;;;;4976576;28;20034;-68
2023/12/09 15:54:37;;;;;;;9.73;5.82;;;;;;;;;;4976652;28;20034;-66
2023/12/09 15:57:03;;;;;;;7.03;5.55;;;;;;;;;;4976470;28;20019;-69
2023/12/09 15:59:28;;;;;;;7.40;5.00;;;;;;;;;;4976434;28;20027;-67
2023/12/09 16:01:54;;;;;;;6.20;4.95;;;;;;;;;;4976454;28;20109;-68
2023/12/09 16:04:20;;;;;;;7.20;4.88;;;;;;;;;;4976405;28;20055;-67
2023/12/09 16:06:46;;;;;;;7.15;4.97;;;;;;;;;;4976683;28;20486;-66
2023/12/09 16:09:12;;;;;;;7.00;5.32;;;;;;;;;;4976513;28;20027;-66
2023/12/09 16:11:39;;;;;;;5.30;4.75;;;;;;;;;;4976239;28;20047;-65
2023/12/09 16:14:04;;;;;;;5.70;4.88;;;;;;;;;;4976208;28;20027;-66
2023/12/09 16:16:30;;;;;;;6.13;4.90;;;;;;;;;;4976162;28;20029;-66
2023/12/09 16:18:56;;;;;;;6.20;4.75;;;;;;;;;;4976400;28;20039;-67
2023/12/09 16:21:22;;;;;;;7.82;4.75;;;;;;;;;;4976131;28;20019;-67
2023/12/09 16:23:49;;;;;;;6.72;4.97;;;;;;;;;;4976339;28;20023;-66
2023/12/09 16:26:14;;;;;;;8.15;4.82;;;;;;;;;;4976262;28;20031;-68
2023/12/09 16:28:40;;;;;;;7.25;4.93;;;;;;;;;;4976215;28;20056;-67
2023/12/09 16:31:13;;;;;;;7.53;5.10;;;;;;;;;;4975774;28;20042;-66
2023/12/09 16:33:38;;;;;;;6.80;5.13;;;;;;;;;;4975854;28;20035;-68
2023/12/09 16:36:04;;;;;;;6.30;4.85;;;;;;;;;;4975788;28;20041;-68
2023/12/09 16:38:33;;;;;;;6.97;5.05;;;;;;;;;;4974478;28;20019;-67
2023/12/09 16:40:59;;;;;;;7.72;4.90;;;;;;;;;;4976006;28;20031;-68
2023/12/09 16:43:24;;;;;;;5.32;4.53;;;;;;;;;;4976307;28;20463;-66
2023/12/09 16:45:50;;;;;;;6.07;4.53;;;;;;;;;;4975724;28;20026;-66
2023/12/09 16:48:16;;;;;;;5.75;4.57;;;;;;;;;;4976004;28;20117;-66
2023/12/09 16:50:41;;;;;;;6.10;4.97;;;;;;;;;;4975700;28;20031;-66
2023/12/09 16:53:07;;;;;;;7.00;4.93;;;;;;;;;;4975666;28;20038;-68
2023/12/09 16:55:32;;;;;;;6.03;4.80;;;;;;;;;;4975503;28;20030;-68
2023/12/09 16:57:58;;;;;;;6.45;5.30;;;;;;;;;;4975654;28;20050;-66
2023/12/09 17:00:24;;;;;;;6.53;4.97;;;;;;;;;;4975436;28;20495;-66
2023/12/09 17:02:49;;;;;;;5.30;4.43;;;;;;;;;;4975306;28;20038;-65
2023/12/09 17:05:15;;;;;;;5.72;4.55;;;;;;;;;;4975597;28;20225;-67
2023/12/09 17:07:41;;;;;;;7.13;4.85;;;;;;;;;;4975208;28;20034;-66
2023/12/09 17:10:08;;;;;;;5.90;4.78;;;;;;;;;;4975314;28;20031;-66
2023/12/09 17:12:35;;;;;;;7.22;4.65;;;;;;;;;;4975013;28;20530;-66
2023/12/09 17:15:01;;;;;;;6.13;4.97;;;;;;;;;;4975116;28;20114;-66
2023/12/09 17:17:26;;;;;;;5.43;4.75;;;;;;;;;;4975286;28;20106;-67
2023/12/09 17:19:52;;;;;;;5.55;4.82;;;;;;;;;;4975323;28;20048;-66
2023/12/09 17:22:17;;;;;;;6.40;5.07;;;;;;;;;;4975021;28;20050;-68
2023/12/09 17:24:43;;;;;;;6.10;4.55;;;;;;;;;;4975332;28;20038;-66
2023/12/09 17:27:10;;;;;;;6.88;4.55;;;;;;;;;;4974882;28;20395;-67
2023/12/09 17:29:35;;;;;;;5.13;4.40;;;;;;;;;;4974947;28;20027;-67
2023/12/09 17:32:01;;;;;;;6.15;4.65;;;;;;;;;;4975378;28;20038;-68
2023/12/09 17:34:26;;;;;;;7.47;4.60;;;;;;;;;;4975142;28;20027;-66
2023/12/09 17:36:52;;;;;;;6.03;4.53;;;;;;;;;;4974871;28;20113;-66
2023/12/09 17:39:19;;;;;;;5.30;4.30;;;;;;;;;;4974855;28;20039;-66
2023/12/09 17:41:44;;;;;;;6.15;4.90;;;;;;;;;;4974603;28;20023;-66
2023/12/09 17:44:10;;;;;;;7.72;5.13;;;;;;;;;;4974600;28;20030;-66
2023/12/09 17:46:35;;;;;;;6.50;4.95;;;;;;;;;;4974844;28;20034;-67
2023/12/09 17:49:01;;;;;;;5.40;4.75;;;;;;;;;;4975013;28;20035;-69
2023/12/09 17:51:26;;;;;;;5.80;4.30;;;;;;;;;;4974760;28;20460;-69
2023/12/09 17:53:52;;;;;;;5.43;4.25;;;;;;;;;;4974346;28;20027;-66
2023/12/09 17:56:17;;;;;;;6.93;4.70;;;;;;;;;;4974653;28;20037;-68
2023/12/09 17:58:43;;;;;;;6.28;4.18;;;;;;;;;;4973332;28;20480;-66
2023/12/09 18:01:08;;;;;;;4.90;4.20;;;;;;;;;;4974516;28;20073;-66
2023/12/09 18:03:34;;;;;;;5.32;4.63;;;;;;;;;;4972467;28;20442;-66
2023/12/09 18:06:00;;;;;;;5.53;4.47;;;;;;;;;;4974488;28;20026;-68
2023/12/09 18:08:26;;;;;;;5.72;4.07;;;;;;;;;;4974359;28;20458;-66
2023/12/09 18:10:51;;;;;;;6.05;5.13;;;;;;;;;;4974068;28;20387;-69
2023/12/09 18:13:17;;;;;;;6.07;4.70;;;;;;;;;;4974092;28;20081;-66
2023/12/09 18:15:42;;;;;;;5.25;4.32;;;;;;;;;;4974309;28;20038;-66
2023/12/09 18:18:08;;;;;;;7.10;4.35;;;;;;;;;;4974330;28;20089;-66
2023/12/09 18:20:33;;;;;;;6.32;4.82;;;;;;;;;;4974417;28;20496;-69
2023/12/09 18:22:59;;;;;;;5.13;4.60;;;;;;;;;;4973905;28;20061;-68
2023/12/09 18:25:29;;;;;;;6.85;4.80;;;;;;;;;;4974071;28;20029;-66
2023/12/09 18:27:55;;;;;;;5.93;4.57;;;;;;;;;;4974193;28;20395;-69
2023/12/09 18:30:22;;;;;;;5.32;4.38;;;;;;;;;;4973967;28;20035;-66
2023/12/09 18:32:48;;;;;;;5.30;4.40;;;;;;;;;;4973799;28;20027;-66
2023/12/09 18:35:13;;;;;;;5.40;4.50;;;;;;;;;;4972565;28;20050;-65
2023/12/09 18:37:40;;;;;;;6.00;4.00;;;;;;;;;;4953504;28;20043;-66
2023/12/09 18:40:07;;;;;;;5.30;4.45;;;;;;;;;;4954318;28;20031;-65
2023/12/09 18:42:36;;;;;;;5.35;4.38;;;;;;;;;;4954685;28;20035;-66
2023/12/09 18:45:01;;;;;;;4.88;4.38;;;;;;;;;;4957337;28;20027;-68
2023/12/09 18:47:37;;;;;;;5.88;4.65;;;;;;;;;;4966881;28;20070;-69
2023/12/09 18:50:03;;;;;;;5.72;4.47;;;;;;;;;;4954731;28;20101;-69
2023/12/09 18:52:28;;;;;;;8.27;4.55;;;;;;;;;;4971217;28;20479;-65
2023/12/09 18:54:54;;;;;;;11.77;5.00;;;;;;;;;;4968317;28;20424;-67
2023/12/09 18:57:20;;;;;;;5.55;4.47;;;;;;;;;;4954502;28;20464;-69
2023/12/09 18:59:45;;;;;;;5.20;4.70;;;;;;;;;;4957841;28;20054;-69
2023/12/09 19:02:11;;;;;;;7.55;4.50;;;;;;;;;;4973951;28;20027;-69
2023/12/09 19:04:37;;;;;;;6.03;4.25;;;;;;;;;;4973372;28;20027;-65
2023/12/09 19:07:02;;;;;;;6.50;4.90;;;;;;;;;;4973497;28;20105;-65
2023/12/09 19:09:28;;;;;;;5.25;4.28;;;;;;;;;;4956862;28;20119;-67
2023/12/09 19:11:54;;;;;;;9.10;4.80;;;;;;;;;;4954124;28;20078;-69
2023/12/09 19:14:19;;;;;;;6.28;4.85;;;;;;;;;;4954744;28;20078;-68
2023/12/09 19:16:45;;;;;;;13.18;4.93;;;;;;;;;;4954716;28;20068;-66
2023/12/09 19:19:10;;;;;;;12.23;5.20;;;;;;;;;;4956639;28;20070;-68
2023/12/09 19:21:37;;;;;;;17.13;5.00;;;;;;;;;;4957678;28;20031;-68
2023/12/09 19:24:03;;;;;;;13.65;5.10;;;;;;;;;;4957975;28;20110;-67
2023/12/09 19:26:29;;;;;;;11.70;5.00;;;;;;;;;;4957675;28;20150;-66
2023/12/09 19:28:56;;;;;;;12.35;5.40;;;;;;;;;;4958102;28;20114;-67
2023/12/09 19:31:21;;;;;;;10.07;5.18;;;;;;;;;;4957667;28;20023;-67
2023/12/09 19:33:47;;;;;;;6.03;4.80;;;;;;;;;;4957778;28;20033;-66
2023/12/09 19:36:12;;;;;;;11.68;5.70;;;;;;;;;;4957688;28;20041;-66
2023/12/09 19:38:38;;;;;;;13.40;5.28;;;;;;;;;;4957676;28;20050;-66
2023/12/09 19:41:04;;;;;;;9.88;5.50;;;;;;;;;;4957571;28;20110;-70
2023/12/09 19:43:29;;;;;;;9.02;5.80;;;;;;;;;;4957511;28;20019;-69
2023/12/09 19:45:55;;;;;;;11.90;5.30;;;;;;;;;;4957488;28;20817;-68
2023/12/09 19:48:21;;;;;;;11.93;5.80;;;;;;;;;;4957617;28;20535;-66
2023/12/09 19:50:47;;;;;;;13.00;6.43;;;;;;;;;;4957274;28;20058;-66
2023/12/09 19:53:12;;;;;;;8.93;5.60;;;;;;;;;;4957628;28;20031;-70
2023/12/09 19:55:38;;;;;;;7.78;5.28;;;;;;;;;;4957219;28;20387;-67
2023/12/09 19:58:06;;;;;;;14.70;5.97;;;;;;;;;;4957301;28;20027;-67
2023/12/09 20:00:31;;;;;;;12.45;5.65;;;;;;;;;;4971133;28;20023;-67
2023/12/09 20:02:58;;;;;;;13.00;6.28;;;;;;;;;;4976385;28;20034;-67
2023/12/09 20:05:24;;;;;;;11.75;7.03;;;;;;;;;;4976259;28;20464;-66
2023/12/09 20:07:49;;;;;;;9.40;6.22;;;;;;;;;;4972792;28;20042;-68
2023/12/09 20:10:15;;;;;;;14.73;6.85;;;;;;;;;;4957259;28;20027;-67
2023/12/09 20:12:40;;;;;;;9.80;6.03;;;;;;;;;;4956848;28;20513;-67
2023/12/09 20:15:08;;;;;;;17.52;6.85;;;;;;;;;;4956812;28;20523;-68
2023/12/09 20:17:35;;;;;;;11.65;6.15;;;;;;;;;;4956857;28;20027;-67
2023/12/09 20:20:01;;;;;;;20.23;7.75;;;;;;;;;;4956918;28;20027;-68
2023/12/09 20:22:26;;;;;;;18.15;7.70;;;;;;;;;;4956938;28;20034;-67
2023/12/09 20:24:52;;;;;;;14.32;7.40;;;;;;;;;;4956688;28;20036;-70
2023/12/09 20:27:17;;;;;;;18.85;7.88;;;;;;;;;;4956529;28;20034;-70
2023/12/09 20:29:43;;;;;;;13.38;7.40;;;;;;;;;;4956625;28;20023;-68
2023/12/09 20:32:09;;;;;;;14.85;7.97;;;;;;;;;;4956818;28;20039;-69
2023/12/09 20:34:34;;;;;;;22.55;8.52;;;;;;;;;;4956536;28;20031;-68
2023/12/09 20:37:01;;;;;;;19.77;8.23;;;;;;;;;;4956430;28;20051;-70
2023/12/09 20:39:26;;;;;;;16.02;7.90;;;;;;;;;;4956986;28;20054;-71
2023/12/09 20:41:52;;;;;;;19.65;8.75;;;;;;;;;;4956464;28;20384;-67
2023/12/09 20:44:17;;;;;;;17.38;8.10;;;;;;;;;;4956336;28;20038;-70
2023/12/09 20:46:43;;;;;;;23.10;9.45;;;;;;;;;;4956735;28;20177;-69
2023/12/09 20:49:09;;;;;;;15.30;9.15;;;;;;;;;;4956226;28;20031;-69
2023/12/09 20:51:35;;;;;;;19.55;8.73;;;;;;;;;;4956262;28;20031;-69
2023/12/09 20:54:00;;;;;;;21.20;9.05;;;;;;;;;;4956335;28;20062;-69
2023/12/09 20:56:26;;;;;;;18.08;8.88;;;;;;;;;;4956160;28;20054;-67
2023/12/09 20:58:51;;;;;;;14.45;8.82;;;;;;;;;;4956521;28;20114;-70
2023/12/09 21:01:17;;;;;;;19.02;9.10;;;;;;;;;;4956573;28;20067;-69
2023/12/09 21:03:43;;;;;;;19.08;8.98;;;;;;;;;;4956255;28;20109;-70
2023/12/09 21:06:09;;;;;;;23.42;9.68;;;;;;;;;;4956385;28;20030;-68
2023/12/09 21:08:37;;;;;;;17.30;9.57;;;;;;;;;;4955871;28;20138;-71
2023/12/09 21:11:03;;;;;;;17.33;10.13;;;;;;;;;;4955946;28;20523;-71
2023/12/09 21:13:28;;;;;;;23.80;10.15;;;;;;;;;;4955968;28;20055;-69
2023/12/09 21:15:54;;;;;;;24.55;10.75;;;;;;;;;;4956121;28;20392;-69
2023/12/09 21:18:20;;;;;;;19.65;10.63;;;;;;;;;;4955751;28;20031;-68
2023/12/09 21:20:45;;;;;;;20.45;10.50;;;;;;;;;;4955758;28;20035;-68
2023/12/09 21:23:11;;;;;;;25.00;11.13;;;;;;;;;;4956261;28;20039;-68
2023/12/09 21:25:36;;;;;;;19.67;10.30;;;;;;;;;;4955552;28;20031;-69
2023/12/09 21:28:02;;;;;;;24.80;10.45;;;;;;;;;;4955906;28;20031;-67
2023/12/09 21:30:28;;;;;;;20.55;10.88;;;;;;;;;;4955638;28;20027;-67
2023/12/09 21:32:54;;;;;;;21.55;10.93;;;;;;;;;;4955510;28;20395;-68
2023/12/09 21:35:19;;;;;;;20.10;11.32;;;;;;;;;;4955835;28;20050;-68